createdAt,value
2018-04-10T00:00:23.451Z,93919.26
2018-04-10T00:02:56.723Z,93925.39
2018-04-10T00:05:29.982Z,93925.47
2018-04-10T00:08:03.255Z,93927.59
2018-04-10T00:10:36.511Z,93920.88
2018-04-10T00:13:10.548Z,93920.05
2018-04-10T00:15:43.800Z,93910.22
2018-04-10T00:18:17.077Z,93908.59
2018-04-10T00:20:50.325Z,93906.82
2018-04-10T00:23:23.599Z,93910.94
2018-04-10T00:25:56.851Z,93907.14
2018-04-10T00:28:30.126Z,93906.06
2018-04-10T00:31:03.375Z,93906.84
2018-04-10T00:33:36.656Z,93909.62
2018-04-10T00:36:09.908Z,93909.97
2018-04-10T00:38:43.178Z,93901.39
2018-04-10T00:41:16.436Z,93903.37
2018-04-10T00:43:49.718Z,93897.07
2018-04-10T00:46:22.967Z,93905.75
2018-04-10T00:48:56.264Z,93906.22
2018-04-10T00:51:29.511Z,93909.67
2018-04-10T00:54:03.583Z,93904.95
2018-04-10T00:56:36.835Z,93908.94
2018-04-10T00:59:10.135Z,93909.54
2018-04-10T01:01:43.388Z,93916.59
2018-04-10T01:04:16.658Z,93914.30
2018-04-10T01:06:49.915Z,93912.22
2018-04-10T01:09:23.199Z,93910.98
2018-04-10T01:11:57.214Z,93922.45
2018-04-10T01:14:30.488Z,93912.88
2018-04-10T01:17:03.739Z,93919.19
2018-04-10T01:19:37.011Z,93915.00
2018-04-10T01:22:10.273Z,93917.08
2018-04-10T01:24:43.558Z,93920.25
2018-04-10T01:27:16.811Z,93918.20
2018-04-10T01:29:50.090Z,93920.65
2018-04-10T01:32:23.348Z,93923.10
2018-04-10T01:34:56.610Z,93930.48
2018-04-10T01:37:29.863Z,93923.96
2018-04-10T01:40:03.139Z,93930.41
2018-04-10T01:42:36.392Z,93930.27
2018-04-10T01:45:09.666Z,93929.77
2018-04-10T01:47:42.919Z,93922.21
2018-04-10T01:50:16.964Z,93926.60
2018-04-10T01:52:50.214Z,93928.19
2018-04-10T01:55:23.485Z,93922.38
2018-04-10T01:57:56.743Z,93921.69
2018-04-10T02:00:30.014Z,93921.13
2018-04-10T02:03:04.036Z,93920.00
2018-04-10T02:05:37.309Z,93924.41
2018-04-10T02:08:10.567Z,93925.34
2018-04-10T02:10:43.844Z,93932.38
2018-04-10T02:13:17.087Z,93928.34
2018-04-10T02:15:51.127Z,93931.48
2018-04-10T02:18:24.388Z,93928.59
2018-04-10T02:20:57.659Z,93931.74
2018-04-10T02:23:30.915Z,93922.61
2018-04-10T02:26:04.188Z,93921.60
2018-04-10T02:28:38.202Z,93921.84
2018-04-10T02:31:11.471Z,93913.95
2018-04-10T02:33:45.503Z,93914.11
2018-04-10T02:36:18.767Z,93909.83
2018-04-10T02:38:52.023Z,93913.55
2018-04-10T02:41:25.291Z,93913.48
2018-04-10T02:43:58.543Z,93913.03
2018-04-10T02:46:31.818Z,93910.20
2018-04-10T02:49:05.063Z,93908.02
2018-04-10T02:51:38.339Z,93908.97
2018-04-10T02:54:11.596Z,93913.86
2018-04-10T02:56:44.864Z,93907.39
2018-04-10T02:59:18.112Z,93914.10
2018-04-10T03:01:51.384Z,93916.97
2018-04-10T03:04:24.636Z,93913.78
2018-04-10T03:06:57.902Z,93912.23
2018-04-10T03:09:31.159Z,93909.53
2018-04-10T03:12:04.431Z,93905.70
2018-04-10T03:14:37.687Z,93902.58
2018-04-10T03:17:10.970Z,93901.44
2018-04-10T03:19:44.215Z,93905.89
2018-04-10T03:22:17.491Z,93898.94
2018-04-10T03:24:50.743Z,93905.44
2018-04-10T03:27:24.031Z,93910.08
2018-04-10T03:29:57.275Z,93909.63
2018-04-10T03:32:30.557Z,93902.69
2018-04-10T03:35:04.572Z,93899.56
2018-04-10T03:37:38.610Z,93898.27
2018-04-10T03:40:11.879Z,93895.20
2018-04-10T03:42:45.922Z,93900.53
2018-04-10T03:45:19.172Z,93897.87
2018-04-10T03:47:53.253Z,93898.56
2018-04-10T03:50:26.491Z,93894.56
2018-04-10T03:53:00.531Z,93893.55
2018-04-10T03:55:33.776Z,93896.21
2018-04-10T03:58:07.078Z,93893.14
2018-04-10T04:00:41.099Z,93891.69
2018-04-10T04:03:15.136Z,93892.22
2018-04-10T04:05:48.391Z,93889.23
2018-04-10T04:08:21.658Z,93891.89
2018-04-10T04:10:54.916Z,93895.32
2018-04-10T04:13:28.195Z,93891.45
2018-04-10T04:16:02.255Z,93891.40
2018-04-10T04:18:53.599Z,93891.88
2018-04-10T04:21:44.807Z,93888.33
2018-04-10T04:24:18.091Z,93881.33
2018-04-10T04:26:51.357Z,93885.97
2018-04-10T04:29:24.628Z,93887.77
2018-04-10T04:31:57.879Z,93883.42
2018-04-10T04:34:31.923Z,93880.42
2018-04-10T04:37:05.946Z,93881.94
2018-04-10T04:39:39.216Z,93875.03
2018-04-10T04:42:13.226Z,93883.26
2018-04-10T04:44:47.265Z,93876.95
2018-04-10T04:47:20.521Z,93881.34
2018-04-10T04:49:53.792Z,93880.31
2018-04-10T04:52:27.065Z,93876.36
2018-04-10T04:55:00.335Z,93877.57
2018-04-10T04:57:33.590Z,93873.58
2018-04-10T05:00:06.980Z,93868.57
2018-04-10T05:02:40.233Z,93877.66
2018-04-10T05:05:13.687Z,93877.53
2018-04-10T05:07:47.715Z,93875.56
2018-04-10T05:10:21.936Z,93869.59
2018-04-10T05:12:55.195Z,93863.23
2018-04-10T05:15:28.488Z,93858.19
2018-04-10T05:18:01.739Z,93863.56
2018-04-10T05:20:35.009Z,93856.30
2018-04-10T05:23:09.026Z,93857.44
2018-04-10T05:25:42.307Z,93852.68
2018-04-10T05:28:17.348Z,93860.31
2018-04-10T05:30:51.569Z,93858.77
2018-04-10T05:33:25.589Z,93863.34
2018-04-10T05:35:58.963Z,93860.20
2018-04-10T05:38:32.983Z,93858.07
2018-04-10T05:41:07.039Z,93864.06
2018-04-10T05:43:40.300Z,93862.21
2018-04-10T05:46:13.592Z,93857.78
2018-04-10T05:48:47.611Z,93852.16
2018-04-10T05:51:21.601Z,93858.63
2018-04-10T05:53:55.616Z,93853.13
2018-04-10T05:56:29.652Z,93855.61
2018-04-10T05:59:02.902Z,93856.29
2018-04-10T06:01:36.172Z,93860.45
2018-04-10T06:04:09.436Z,93866.27
2018-04-10T06:06:42.712Z,93871.40
2018-04-10T06:09:15.991Z,93872.66
2018-04-10T06:11:50.039Z,93871.44
2018-04-10T06:14:23.312Z,93873.66
2018-04-10T06:16:57.347Z,93872.84
2018-04-10T06:19:30.603Z,93878.27
2018-04-10T06:22:04.639Z,93886.78
2018-04-10T06:24:37.897Z,93884.94
2018-04-10T06:27:11.165Z,93887.05
2018-04-10T06:29:44.434Z,93893.70
2018-04-10T06:32:17.718Z,93901.86
2018-04-10T06:34:50.963Z,93909.41
2018-04-10T06:37:24.253Z,93910.36
2018-04-10T06:39:57.503Z,93909.11
2018-04-10T06:42:30.774Z,93905.73
2018-04-10T06:45:04.029Z,93907.91
2018-04-10T06:47:37.344Z,93905.06
2018-04-10T06:50:10.559Z,93897.50
2018-04-10T06:52:43.830Z,93894.45
2018-04-10T06:55:17.889Z,93893.31
2018-04-10T06:57:51.147Z,93879.25
2018-04-10T07:00:24.454Z,93874.70
2018-04-10T07:02:57.716Z,93867.31
2018-04-10T07:05:31.011Z,93871.28
2018-04-10T07:08:04.263Z,93869.08
2018-04-10T07:10:37.571Z,93865.02
2018-04-10T07:13:10.804Z,93862.65
2018-04-10T07:15:44.084Z,93856.96
2018-04-10T07:18:17.351Z,93860.38
2018-04-10T07:20:51.207Z,93862.42
2018-04-10T07:23:24.464Z,93868.79
2018-04-10T07:25:57.741Z,93877.23
2018-04-10T07:28:30.995Z,93882.36
2018-04-10T07:31:04.273Z,93874.86
2018-04-10T07:33:37.524Z,93873.30
2018-04-10T07:36:10.800Z,93877.28
2018-04-10T07:38:44.047Z,93879.87
2018-04-10T07:41:17.328Z,93879.81
2018-04-10T07:43:50.596Z,93882.78
2018-04-10T07:46:23.862Z,93891.70
2018-04-10T07:48:57.111Z,93900.95
2018-04-10T07:51:30.391Z,93899.09
2018-04-10T07:54:03.651Z,93892.16
2018-04-10T07:56:36.923Z,93900.66
2018-04-10T07:59:10.179Z,93901.37
2018-04-10T08:01:43.455Z,93898.03
2018-04-10T08:04:16.726Z,93898.90
2018-04-10T08:06:50.012Z,93907.88
2018-04-10T08:09:24.036Z,93901.37
2018-04-10T08:11:57.327Z,93899.38
2018-04-10T08:14:30.578Z,93902.91
2018-04-10T08:17:03.862Z,93897.71
2018-04-10T08:19:37.127Z,93890.64
2018-04-10T08:22:10.407Z,93888.52
2018-04-10T08:24:43.680Z,93885.23
2018-04-10T08:27:16.951Z,93881.92
2018-04-10T08:29:50.198Z,93888.25
2018-04-10T08:32:23.476Z,93881.50
2018-04-10T08:34:56.742Z,93885.41
2018-04-10T08:37:33.788Z,93880.80
2018-04-10T08:40:07.044Z,93887.00
2018-04-10T08:42:40.334Z,93882.78
2018-04-10T08:45:13.592Z,93876.93
2018-04-10T08:47:46.873Z,93884.37
2018-04-10T08:50:20.119Z,93887.56
2018-04-10T08:52:53.395Z,93888.98
2018-04-10T08:55:26.652Z,93884.31
2018-04-10T08:57:59.924Z,93876.03
2018-04-10T09:00:33.183Z,93880.39
2018-04-10T09:03:06.466Z,93886.18
2018-04-10T09:05:40.480Z,93883.42
2018-04-10T09:08:14.537Z,93880.37
2018-04-10T09:10:47.795Z,93882.97
2018-04-10T09:13:21.831Z,93882.36
2018-04-10T09:15:55.079Z,93881.19
2018-04-10T09:18:29.117Z,93875.07
2018-04-10T09:21:02.360Z,93868.13
2018-04-10T09:23:35.644Z,93868.03
2018-04-10T09:26:08.905Z,93870.27
2018-04-10T09:28:42.179Z,93873.27
2018-04-10T09:31:16.203Z,93867.39
2018-04-10T09:33:49.484Z,93862.34
2018-04-10T09:36:23.502Z,93863.02
2018-04-10T09:38:56.783Z,93864.23
2018-04-10T09:41:30.827Z,93865.34
2018-04-10T09:44:04.090Z,93868.43
2018-04-10T09:46:38.128Z,93868.03
2018-04-10T09:49:11.427Z,93858.92
2018-04-10T09:51:44.684Z,93857.78
2018-04-10T09:54:18.109Z,93854.17
2018-04-10T09:56:51.371Z,93855.16
2018-04-10T09:59:24.770Z,93852.11
2018-04-10T10:01:58.020Z,93847.96
2018-04-10T10:04:31.395Z,93852.97
2018-04-10T10:07:04.651Z,93852.06
2018-04-10T10:09:38.699Z,93848.44
2018-04-10T10:12:11.950Z,93860.69
2018-04-10T10:14:45.259Z,93866.63
2018-04-10T10:17:18.490Z,93866.22
2018-04-10T10:19:51.797Z,93870.95
2018-04-10T10:22:25.027Z,93869.60
2018-04-10T10:24:58.423Z,93867.61
2018-04-10T10:27:31.675Z,93858.08
2018-04-10T10:30:04.975Z,93856.48
2018-04-10T10:32:38.240Z,93847.89
2018-04-10T10:35:11.512Z,93840.09
2018-04-10T10:37:45.543Z,93833.81
2018-04-10T10:40:18.816Z,93845.92
2018-04-10T10:42:52.848Z,93851.44
2018-04-10T10:45:26.344Z,93843.79
2018-04-10T10:47:59.612Z,93841.08
2018-04-10T10:50:33.084Z,93844.31
2018-04-10T10:53:06.353Z,93842.81
2018-04-10T10:55:39.622Z,93844.59
2018-04-10T10:58:12.883Z,93844.16
2018-04-10T11:00:46.156Z,93837.55
2018-04-10T11:03:19.419Z,93839.81
2018-04-10T11:05:52.682Z,93852.58
2018-04-10T11:08:26.707Z,93852.84
2018-04-10T11:10:59.976Z,93854.05
2018-04-10T11:13:33.236Z,93855.51
2018-04-10T11:16:06.514Z,93868.02
2018-04-10T11:18:39.767Z,93865.16
2018-04-10T11:21:13.809Z,93861.47
2018-04-10T11:23:47.069Z,93862.12
2018-04-10T11:26:20.335Z,93861.04
2018-04-10T11:28:53.608Z,93861.16
2018-04-10T11:31:26.882Z,93861.04
2018-04-10T11:34:00.140Z,93856.11
2018-04-10T11:36:33.419Z,93853.37
2018-04-10T11:39:07.476Z,93842.27
2018-04-10T11:41:41.508Z,93842.24
2018-04-10T11:44:14.755Z,93843.92
2018-04-10T11:46:48.031Z,93843.06
2018-04-10T11:49:21.279Z,93840.83
2018-04-10T11:51:54.556Z,93845.60
2018-04-10T11:54:28.571Z,93839.89
2018-04-10T11:57:01.843Z,93834.67
2018-04-10T11:59:35.103Z,93831.69
2018-04-10T12:02:08.371Z,93831.89
2018-04-10T12:04:41.641Z,93835.73
2018-04-10T12:07:15.683Z,93829.22
2018-04-10T12:09:48.943Z,93811.44
2018-04-10T12:12:22.987Z,93809.66
2018-04-10T12:14:56.252Z,93812.21
2018-04-10T12:17:30.306Z,93818.95
2018-04-10T12:20:03.560Z,93815.74
2018-04-10T12:22:37.603Z,93814.65
2018-04-10T12:25:10.853Z,93812.51
2018-04-10T12:27:44.894Z,93810.65
2018-04-10T12:30:18.151Z,93806.89
2018-04-10T12:32:51.427Z,93810.38
2018-04-10T12:35:24.696Z,93807.77
2018-04-10T12:37:57.976Z,93800.19
2018-04-10T12:40:31.226Z,93799.92
2018-04-10T12:43:04.509Z,93802.76
2018-04-10T12:45:37.759Z,93797.97
2018-04-10T12:48:11.044Z,93800.12
2018-04-10T12:50:44.290Z,93796.80
2018-04-10T12:53:17.567Z,93785.48
2018-04-10T12:55:50.823Z,93783.61
2018-04-10T12:58:24.099Z,93782.95
2018-04-10T13:00:57.344Z,93776.50
2018-04-10T13:03:30.614Z,93779.64
2018-04-10T13:06:03.879Z,93781.29
2018-04-10T13:08:37.921Z,93778.13
2018-04-10T13:11:11.181Z,93782.95
2018-04-10T13:13:45.243Z,93789.23
2018-04-10T13:16:18.462Z,93775.34
2018-04-10T13:18:51.739Z,93787.13
2018-04-10T13:21:24.999Z,93780.02
2018-04-10T13:23:58.280Z,93782.04
2018-04-10T13:26:31.539Z,93782.92
2018-04-10T13:29:04.823Z,93784.30
2018-04-10T13:31:38.071Z,93779.23
2018-04-10T13:34:11.345Z,93782.44
2018-04-10T13:36:45.367Z,93785.34
2018-04-10T13:39:18.634Z,93785.62
2018-04-10T13:41:51.903Z,93783.49
2018-04-10T13:44:25.175Z,93787.16
2018-04-10T13:46:58.435Z,93785.20
2018-04-10T13:49:32.476Z,93787.97
2018-04-10T13:52:05.728Z,93786.27
2018-04-10T13:54:39.774Z,93783.66
2018-04-10T13:57:13.043Z,93775.44
2018-04-10T13:59:47.080Z,93775.39
2018-04-10T14:02:20.331Z,93773.63
2018-04-10T14:04:53.634Z,93772.35
2018-04-10T14:07:26.872Z,93772.66
2018-04-10T14:10:00.174Z,93774.20
2018-04-10T14:12:33.428Z,93774.02
2018-04-10T14:15:07.487Z,93767.88
2018-04-10T14:17:40.735Z,93766.85
2018-04-10T14:20:14.820Z,93763.34
2018-04-10T14:22:48.073Z,93775.30
2018-04-10T14:25:21.347Z,93769.09
2018-04-10T14:27:54.601Z,93766.53
2018-04-10T14:30:27.873Z,93774.56
2018-04-10T14:33:01.133Z,93767.84
2018-04-10T14:35:34.416Z,93763.49
2018-04-10T14:38:07.679Z,93769.90
2018-04-10T14:40:40.957Z,93776.30
2018-04-10T14:43:14.208Z,93770.03
2018-04-10T14:45:47.694Z,93767.00
2018-04-10T14:48:20.956Z,93761.45
2018-04-10T14:50:54.257Z,93758.33
2018-04-10T14:53:27.513Z,93754.52
2018-04-10T14:56:00.796Z,93758.44
2018-04-10T14:58:34.045Z,93759.05
2018-04-10T15:01:08.087Z,93762.03
2018-04-10T15:03:41.337Z,93761.09
2018-04-10T15:06:15.388Z,93760.51
2018-04-10T15:08:48.636Z,93760.26
2018-04-10T15:11:22.688Z,93762.76
2018-04-10T15:13:55.960Z,93763.56
2018-04-10T15:16:29.227Z,93763.23
2018-04-10T15:19:02.508Z,93772.17
2018-04-10T15:21:35.790Z,93774.20
2018-04-10T15:24:09.031Z,93772.55
2018-04-10T15:26:43.067Z,93771.20
2018-04-10T15:29:16.327Z,93768.36
2018-04-10T15:31:49.616Z,93767.61
2018-04-10T15:34:22.870Z,93768.92
2018-04-10T15:36:56.149Z,93764.58
2018-04-10T15:39:29.412Z,93764.36
2018-04-10T15:42:02.676Z,93765.45
2018-04-10T15:44:35.932Z,93751.61
2018-04-10T15:47:09.218Z,93755.92
2018-04-10T15:49:43.219Z,93757.88
2018-04-10T15:52:17.275Z,93751.63
2018-04-10T15:54:50.527Z,93756.44
2018-04-10T15:57:24.592Z,93763.36
2018-04-10T15:59:57.839Z,93759.75
2018-04-10T16:02:31.135Z,93764.47
2018-04-10T16:05:04.384Z,93761.78
2018-04-10T16:07:37.658Z,93762.95
2018-04-10T16:10:10.908Z,93761.55
2018-04-10T16:12:44.971Z,93757.08
2018-04-10T16:15:18.221Z,93753.20
2018-04-10T16:17:51.509Z,93754.80
2018-04-10T16:20:25.533Z,93752.27
2018-04-10T16:22:58.799Z,93752.25
2018-04-10T16:25:32.059Z,93753.34
2018-04-10T16:28:05.319Z,93754.52
2018-04-10T16:30:38.969Z,93752.30
2018-04-10T16:33:12.378Z,93754.27
2018-04-10T16:35:45.739Z,93759.61
2018-04-10T16:38:19.023Z,93759.31
2018-04-10T16:40:52.283Z,93752.90
2018-04-10T16:43:25.579Z,93754.97
2018-04-10T16:45:59.599Z,93751.30
2018-04-10T16:48:32.873Z,93746.91
2018-04-10T16:51:06.896Z,93753.75
2018-04-10T16:53:40.932Z,93743.58
2018-04-10T16:56:14.195Z,93744.72
2018-04-10T16:58:48.231Z,93741.96
2018-04-10T17:01:21.496Z,93746.39
2018-04-10T17:03:55.536Z,93750.12
2018-04-10T17:06:28.803Z,93757.34
2018-04-10T17:09:02.841Z,93757.50
2018-04-10T17:11:36.088Z,93762.83
2018-04-10T17:14:09.364Z,93761.91
2018-04-10T17:16:42.632Z,93754.41
2018-04-10T17:19:15.903Z,93760.67
2018-04-10T17:21:49.932Z,93759.88
2018-04-10T17:24:23.223Z,93764.66
2018-04-10T17:26:56.463Z,93759.95
2018-04-10T17:29:29.744Z,93766.15
2018-04-10T17:32:02.998Z,93769.28
2018-04-10T17:34:36.278Z,93772.27
2018-04-10T17:37:10.295Z,93772.96
2018-04-10T17:39:43.577Z,93779.73
2018-04-10T17:42:16.826Z,93782.84
2018-04-10T17:44:50.097Z,93782.44
2018-04-10T17:47:23.352Z,93788.95
2018-04-10T17:49:56.625Z,93795.08
2018-04-10T17:52:29.872Z,93798.98
2018-04-10T17:55:03.149Z,93798.86
2018-04-10T17:57:37.160Z,93804.66
2018-04-10T18:00:11.212Z,93809.80
2018-04-10T18:02:44.476Z,93813.70
2018-04-10T18:05:18.577Z,93821.56
2018-04-10T18:07:52.591Z,93816.19
2018-04-10T18:10:26.668Z,93820.41
2018-04-10T18:12:59.913Z,93824.48
2018-04-10T18:15:33.180Z,93825.69
2018-04-10T18:18:07.195Z,93828.13
2018-04-10T18:20:41.269Z,93835.59
2018-04-10T18:23:14.515Z,93834.41
2018-04-10T18:25:47.795Z,93839.00
2018-04-10T18:28:21.840Z,93841.72
2018-04-10T18:30:55.087Z,93839.86
2018-04-10T18:33:28.412Z,93842.58
2018-04-10T18:36:02.433Z,93853.53
2018-04-10T18:38:35.719Z,93874.06
2018-04-10T18:41:09.730Z,93889.48
2018-04-10T18:43:43.005Z,93931.66
2018-04-10T18:46:17.027Z,93925.31
2018-04-10T18:48:51.076Z,93922.94
2018-04-10T18:51:24.333Z,93925.67
2018-04-10T18:53:57.603Z,93962.25
2018-04-10T18:56:30.863Z,93969.19
2018-04-10T18:59:04.141Z,93970.66
2018-04-10T19:01:37.407Z,93985.45
2018-04-10T19:04:11.455Z,93998.20
2018-04-10T19:06:44.704Z,94005.07
2018-04-10T19:09:17.987Z,94001.94
2018-04-10T19:11:51.231Z,94017.56
2018-04-10T19:14:24.510Z,94004.09
2018-04-10T19:16:57.766Z,94005.60
2018-04-10T19:19:31.040Z,94001.25
2018-04-10T19:22:04.297Z,93994.00
2018-04-10T19:24:37.572Z,93994.42
2018-04-10T19:27:10.831Z,93998.89
2018-04-10T19:29:44.108Z,93999.44
2018-04-10T19:32:17.376Z,94003.50
2018-04-10T19:34:50.643Z,94018.30
2018-04-10T19:37:24.667Z,94010.38
2018-04-10T19:39:57.980Z,94016.78
2018-04-10T19:42:31.217Z,94027.42
2018-04-10T19:45:04.526Z,94024.02
2018-04-10T19:47:37.751Z,94027.62
2018-04-10T19:50:11.442Z,94033.44
2018-04-10T19:52:44.692Z,94040.72
2018-04-10T19:55:18.000Z,94041.52
2018-04-10T19:57:51.247Z,94054.89
2018-04-10T20:00:24.531Z,94062.50
2018-04-10T20:02:57.784Z,94066.42
2018-04-10T20:05:31.104Z,94074.14
2018-04-10T20:08:04.319Z,94070.22
2018-04-10T20:10:37.601Z,94081.55
2018-04-10T20:13:10.852Z,94078.37
2018-04-10T20:15:44.152Z,94075.52
2018-04-10T20:18:17.405Z,94061.66
2018-04-10T20:20:50.799Z,94081.05
2018-04-10T20:23:24.047Z,94088.83
2018-04-10T20:25:58.112Z,94080.48
2018-04-10T20:28:31.367Z,94074.08
2018-04-10T20:31:04.663Z,94068.69
2018-04-10T20:33:37.926Z,94063.06
2018-04-10T20:36:11.669Z,94054.47
2018-04-10T20:38:45.080Z,94065.55
2018-04-10T20:41:18.352Z,94063.98
2018-04-10T20:43:51.594Z,94074.59
2018-04-10T20:46:24.901Z,94084.59
2018-04-10T20:48:58.189Z,94084.50
2018-04-10T20:51:31.451Z,94081.81
2018-04-10T20:54:04.712Z,94083.59
2018-04-10T20:56:38.758Z,94087.98
2018-04-10T20:59:12.023Z,94092.59
2018-04-10T21:01:46.060Z,94095.80
2018-04-10T21:04:19.323Z,94096.81
2018-04-10T21:06:52.595Z,94100.77
2018-04-10T21:09:25.853Z,94110.88
2018-04-10T21:11:59.139Z,94118.55
2018-04-10T21:14:32.388Z,94110.90
2018-04-10T21:17:06.436Z,94119.95
2018-04-10T21:19:39.694Z,94111.19
2018-04-10T21:22:12.971Z,94101.23
2018-04-10T21:24:46.224Z,94100.84
2018-04-10T21:27:19.502Z,94118.01
2018-04-10T21:29:52.758Z,94121.08
2018-04-10T21:32:26.035Z,94137.52
2018-04-10T21:34:59.283Z,94148.73
2018-04-10T21:37:32.564Z,94142.62
2018-04-10T21:40:05.812Z,94146.79
2018-04-10T21:42:44.644Z,94143.02
2018-04-10T21:45:17.892Z,94147.80
2018-04-10T21:47:51.163Z,94145.25
2018-04-10T21:50:25.197Z,94143.34
2018-04-10T21:52:58.476Z,94146.99
2018-04-10T21:55:32.494Z,94152.28
2018-04-10T21:58:05.780Z,94149.86
2018-04-10T22:00:39.027Z,94150.39
2018-04-10T22:03:12.300Z,94149.01
2018-04-10T22:05:45.550Z,94143.59
2018-04-10T22:08:19.591Z,94149.98
2018-04-10T22:10:52.856Z,94145.89
2018-04-10T22:13:26.910Z,94153.45
2018-04-10T22:16:00.158Z,94163.60
2018-04-10T22:18:34.191Z,94170.49
2018-04-10T22:21:07.447Z,94172.88
2018-04-10T22:23:40.724Z,94177.55
2018-04-10T22:26:13.976Z,94177.26
2018-04-10T22:28:47.250Z,94178.84
2018-04-10T22:31:20.505Z,94187.02
2018-04-10T22:33:53.738Z,94185.63
2018-04-10T22:36:27.004Z,94180.25
2018-04-10T22:39:01.041Z,94183.56
2018-04-10T22:41:34.320Z,94187.08
2018-04-10T22:44:07.571Z,94194.57
2018-04-10T22:46:40.844Z,94186.56
2018-04-10T22:49:14.100Z,94187.61
2018-04-10T22:51:48.137Z,94193.84
2018-04-10T22:54:26.476Z,94202.20
2018-04-10T22:56:59.749Z,94211.19
2018-04-10T22:59:33.003Z,94217.70
2018-04-10T23:02:07.057Z,94213.45
2018-04-10T23:04:40.311Z,94217.42
2018-04-10T23:07:14.397Z,94220.83
2018-04-10T23:09:47.651Z,94216.48
2018-04-10T23:12:20.952Z,94217.81
2018-04-10T23:14:54.217Z,94217.48
2018-04-10T23:17:28.262Z,94214.27
2018-04-10T23:20:01.524Z,94225.43
2018-04-10T23:22:35.253Z,94226.59
2018-04-10T23:25:08.511Z,94236.73
2018-04-10T23:27:41.776Z,94235.52
2018-04-10T23:30:15.032Z,94226.30
2018-04-10T23:32:49.075Z,94237.72
2018-04-10T23:35:22.338Z,94228.72
2018-04-10T23:37:55.606Z,94238.80
2018-04-10T23:40:28.871Z,94242.75
2018-04-10T23:43:02.154Z,94250.84
2018-04-10T23:45:35.416Z,94260.53
2018-04-10T23:48:09.465Z,94276.44
2018-04-10T23:50:42.715Z,94268.81
2018-04-10T23:53:16.003Z,94269.99
2018-04-10T23:55:49.265Z,94268.53
2018-04-10T23:58:22.536Z,94270.51
